sensor_id;sensor_type;location;lat;lon;timestamp;temperature;humidity
21635;DHT22;10979;48.306;9.830;2022-08-01T00:01:44;14.90;99.90
21635;DHT22;10979;48.306;9.830;2022-08-01T00:04:10;15.10;99.90
21635;DHT22;10979;48.306;9.830;2022-08-01T00:06:35;15.20;99.90
21635;DHT22;10979;48.306;9.830;2022-08-01T00:09:01;15.30;99.90
21635;DHT22;10979;48.306;9.830;2022-08-01T00:11:26;15.40;99.90
21635;DHT22;10979;48.306;9.830;2022-08-01T00:13:52;15.50;99.90
21635;DHT22;10979;48.306;9.830;2022-08-01T00:16:18;15.50;99.90
21635;DHT22;10979;48.306;9.830;2022-08-01T00:18:44;15.70;99.90
21635;DHT22;10979;48.306;9.830;2022-08-01T00:21:10;15.60;99.90
21635;DHT22;10979;48.306;9.830;2022-08-01T00:23:35;15.70;99.90
21635;DHT22;10979;48.306;9.830;2022-08-01T00:26:01;15.70;99.90
21635;DHT22;10979;48.306;9.830;2022-08-01T00:28:27;15.60;99.90
21635;DHT22;10979;48.306;9.830;2022-08-01T00:30:52;15.60;99.90
21635;DHT22;10979;48.306;9.830;2022-08-01T00:33:18;15.50;99.90
21635;DHT22;10979;48.306;9.830;2022-08-01T00:35:44;15.30;99.90
21635;DHT22;10979;48.306;9.830;2022-08-01T00:38:09;15.20;99.90
21635;DHT22;10979;48.306;9.830;2022-08-01T00:40:36;15.10;99.90
21635;DHT22;10979;48.306;9.830;2022-08-01T00:43:01;15.20;99.90
21635;DHT22;10979;48.306;9.830;2022-08-01T00:45:27;15.10;99.90
21635;DHT22;10979;48.306;9.830;2022-08-01T00:47:53;15.20;99.90
21635;DHT22;10979;48.306;9.830;2022-08-01T00:50:18;15.10;99.90
21635;DHT22;10979;48.306;9.830;2022-08-01T00:52:44;15.30;99.90
21635;DHT22;10979;48.306;9.830;2022-08-01T00:55:10;15.30;99.90
21635;DHT22;10979;48.306;9.830;2022-08-01T00:57:37;15.30;99.90
21635;DHT22;10979;48.306;9.830;2022-08-01T01:00:04;15.50;99.90
21635;DHT22;10979;48.306;9.830;2022-08-01T01:02:30;15.40;99.90
21635;DHT22;10979;48.306;9.830;2022-08-01T01:04:55;15.30;99.90
21635;DHT22;10979;48.306;9.830;2022-08-01T01:07:32;15.10;99.90
21635;DHT22;10979;48.306;9.830;2022-08-01T01:12:52;15.00;99.90
21635;DHT22;10979;48.306;9.830;2022-08-01T01:17:55;15.00;99.90
21635;DHT22;10979;48.306;9.830;2022-08-01T01:20:26;14.90;99.90
21635;DHT22;10979;48.306;9.830;2022-08-01T01:31:11;14.70;99.90
21635;DHT22;10979;48.306;9.830;2022-08-01T01:33:40;14.50;99.90
21635;DHT22;10979;48.306;9.830;2022-08-01T01:36:09;14.20;99.90
21635;DHT22;10979;48.306;9.830;2022-08-01T01:38:42;14.30;99.90
21635;DHT22;10979;48.306;9.830;2022-08-01T01:41:10;14.30;99.90
21635;DHT22;10979;48.306;9.830;2022-08-01T01:43:37;14.40;99.90
21635;DHT22;10979;48.306;9.830;2022-08-01T01:46:04;14.20;99.90
21635;DHT22;10979;48.306;9.830;2022-08-01T01:48:31;14.20;99.90
21635;DHT22;10979;48.306;9.830;2022-08-01T01:50:58;14.20;99.90
21635;DHT22;10979;48.306;9.830;2022-08-01T01:53:25;14.60;99.90
21635;DHT22;10979;48.306;9.830;2022-08-01T01:55:53;15.00;99.90
21635;DHT22;10979;48.306;9.830;2022-08-01T01:58:21;15.50;99.90
21635;DHT22;10979;48.306;9.830;2022-08-01T02:00:50;15.00;99.90
21635;DHT22;10979;48.306;9.830;2022-08-01T02:03:17;14.90;99.90
21635;DHT22;10979;48.306;9.830;2022-08-01T02:05:44;14.70;99.90
21635;DHT22;10979;48.306;9.830;2022-08-01T02:08:10;14.40;99.90
21635;DHT22;10979;48.306;9.830;2022-08-01T02:10:37;14.50;99.90
21635;DHT22;10979;48.306;9.830;2022-08-01T02:13:05;14.30;99.90
21635;DHT22;10979;48.306;9.830;2022-08-01T02:15:33;14.10;99.90
21635;DHT22;10979;48.306;9.830;2022-08-01T02:18:01;14.00;99.90
21635;DHT22;10979;48.306;9.830;2022-08-01T02:20:29;14.30;99.90
21635;DHT22;10979;48.306;9.830;2022-08-01T02:23:13;14.00;99.90
21635;DHT22;10979;48.306;9.830;2022-08-01T02:25:50;14.00;99.90
21635;DHT22;10979;48.306;9.830;2022-08-01T02:28:22;14.20;99.90
21635;DHT22;10979;48.306;9.830;2022-08-01T02:30:53;14.00;99.90
21635;DHT22;10979;48.306;9.830;2022-08-01T02:33:23;13.60;99.90
21635;DHT22;10979;48.306;9.830;2022-08-01T02:35:57;13.80;99.90
21635;DHT22;10979;48.306;9.830;2022-08-01T02:38:25;13.70;99.90
21635;DHT22;10979;48.306;9.830;2022-08-01T02:40:53;13.60;99.90
21635;DHT22;10979;48.306;9.830;2022-08-01T02:43:24;13.60;99.90
21635;DHT22;10979;48.306;9.830;2022-08-01T02:45:52;13.50;99.90
21635;DHT22;10979;48.306;9.830;2022-08-01T02:48:20;13.70;99.90
21635;DHT22;10979;48.306;9.830;2022-08-01T02:50:48;13.70;99.90
21635;DHT22;10979;48.306;9.830;2022-08-01T02:53:17;13.50;99.90
21635;DHT22;10979;48.306;9.830;2022-08-01T02:55:45;13.60;99.90
21635;DHT22;10979;48.306;9.830;2022-08-01T02:58:14;13.60;99.90
21635;DHT22;10979;48.306;9.830;2022-08-01T03:00:42;13.70;99.90
21635;DHT22;10979;48.306;9.830;2022-08-01T03:03:09;13.50;99.90
21635;DHT22;10979;48.306;9.830;2022-08-01T03:05:35;13.50;99.90
21635;DHT22;10979;48.306;9.830;2022-08-01T03:08:02;13.60;99.90
21635;DHT22;10979;48.306;9.830;2022-08-01T03:10:30;13.70;99.90
21635;DHT22;10979;48.306;9.830;2022-08-01T03:12:57;13.60;99.90
21635;DHT22;10979;48.306;9.830;2022-08-01T03:15:26;13.30;99.90
21635;DHT22;10979;48.306;9.830;2022-08-01T03:17:53;13.20;99.90
21635;DHT22;10979;48.306;9.830;2022-08-01T03:20:21;13.10;99.90
21635;DHT22;10979;48.306;9.830;2022-08-01T03:22:50;13.10;99.90
21635;DHT22;10979;48.306;9.830;2022-08-01T03:25:18;13.30;99.90
21635;DHT22;10979;48.306;9.830;2022-08-01T03:27:50;13.30;99.90
21635;DHT22;10979;48.306;9.830;2022-08-01T03:30:17;13.30;99.90
21635;DHT22;10979;48.306;9.830;2022-08-01T03:32:42;13.30;99.90
21635;DHT22;10979;48.306;9.830;2022-08-01T03:35:08;13.20;99.90
21635;DHT22;10979;48.306;9.830;2022-08-01T03:37:38;13.20;99.90
21635;DHT22;10979;48.306;9.830;2022-08-01T03:40:11;13.20;99.90
21635;DHT22;10979;48.306;9.830;2022-08-01T03:42:45;13.10;99.90
21635;DHT22;10979;48.306;9.830;2022-08-01T03:45:21;13.20;99.90
21635;DHT22;10979;48.306;9.830;2022-08-01T03:47:49;12.80;99.90
21635;DHT22;10979;48.306;9.830;2022-08-01T03:50:16;12.90;99.90
21635;DHT22;10979;48.306;9.830;2022-08-01T03:52:45;12.60;99.90
21635;DHT22;10979;48.306;9.830;2022-08-01T03:55:12;12.60;99.90
21635;DHT22;10979;48.306;9.830;2022-08-01T03:57:40;12.60;99.90
21635;DHT22;10979;48.306;9.830;2022-08-01T04:00:06;12.60;99.90
21635;DHT22;10979;48.306;9.830;2022-08-01T04:02:34;12.60;99.90
21635;DHT22;10979;48.306;9.830;2022-08-01T04:05:01;12.60;99.90
21635;DHT22;10979;48.306;9.830;2022-08-01T04:07:29;12.60;99.90
21635;DHT22;10979;48.306;9.830;2022-08-01T04:09:55;12.60;99.90
21635;DHT22;10979;48.306;9.830;2022-08-01T04:12:21;12.70;99.90
21635;DHT22;10979;48.306;9.830;2022-08-01T04:14:46;12.60;99.90
21635;DHT22;10979;48.306;9.830;2022-08-01T04:17:13;12.60;99.90
21635;DHT22;10979;48.306;9.830;2022-08-01T04:19:38;12.70;99.90
21635;DHT22;10979;48.306;9.830;2022-08-01T04:22:04;12.80;99.90
21635;DHT22;10979;48.306;9.830;2022-08-01T04:24:32;12.80;99.90
21635;DHT22;10979;48.306;9.830;2022-08-01T04:27:00;12.70;99.90
21635;DHT22;10979;48.306;9.830;2022-08-01T04:29:27;12.60;99.90
21635;DHT22;10979;48.306;9.830;2022-08-01T04:31:54;12.60;99.90
21635;DHT22;10979;48.306;9.830;2022-08-01T04:34:23;12.70;99.90
21635;DHT22;10979;48.306;9.830;2022-08-01T04:36:51;12.80;99.90
21635;DHT22;10979;48.306;9.830;2022-08-01T04:39:19;12.90;99.90
21635;DHT22;10979;48.306;9.830;2022-08-01T04:41:46;13.10;99.90
21635;DHT22;10979;48.306;9.830;2022-08-01T04:44:13;13.20;99.90
21635;DHT22;10979;48.306;9.830;2022-08-01T04:46:39;13.30;99.90
21635;DHT22;10979;48.306;9.830;2022-08-01T04:49:06;13.60;99.90
21635;DHT22;10979;48.306;9.830;2022-08-01T04:51:34;13.60;99.90
21635;DHT22;10979;48.306;9.830;2022-08-01T04:54:00;13.40;99.90
21635;DHT22;10979;48.306;9.830;2022-08-01T04:56:27;13.50;99.90
21635;DHT22;10979;48.306;9.830;2022-08-01T04:58:52;13.70;99.90
21635;DHT22;10979;48.306;9.830;2022-08-01T05:01:38;13.70;99.90
21635;DHT22;10979;48.306;9.830;2022-08-01T05:04:04;13.70;99.90
21635;DHT22;10979;48.306;9.830;2022-08-01T05:06:29;13.70;99.90
21635;DHT22;10979;48.306;9.830;2022-08-01T05:08:55;14.00;99.90
21635;DHT22;10979;48.306;9.830;2022-08-01T05:11:21;14.30;99.90
21635;DHT22;10979;48.306;9.830;2022-08-01T05:13:47;14.30;99.90
21635;DHT22;10979;48.306;9.830;2022-08-01T05:16:13;14.40;99.90
21635;DHT22;10979;48.306;9.830;2022-08-01T05:18:38;14.60;99.90
21635;DHT22;10979;48.306;9.830;2022-08-01T05:21:04;14.60;99.90
21635;DHT22;10979;48.306;9.830;2022-08-01T05:23:30;14.80;99.90
21635;DHT22;10979;48.306;9.830;2022-08-01T05:25:55;14.80;99.90
21635;DHT22;10979;48.306;9.830;2022-08-01T05:28:21;15.10;99.90
21635;DHT22;10979;48.306;9.830;2022-08-01T05:30:46;15.60;99.90
21635;DHT22;10979;48.306;9.830;2022-08-01T05:33:12;16.00;99.90
21635;DHT22;10979;48.306;9.830;2022-08-01T05:35:37;16.40;99.90
21635;DHT22;10979;48.306;9.830;2022-08-01T05:38:03;16.70;99.90
21635;DHT22;10979;48.306;9.830;2022-08-01T05:40:29;16.80;99.90
21635;DHT22;10979;48.306;9.830;2022-08-01T05:42:54;16.90;99.90
21635;DHT22;10979;48.306;9.830;2022-08-01T05:45:20;16.50;99.90
21635;DHT22;10979;48.306;9.830;2022-08-01T05:47:45;16.60;99.90
21635;DHT22;10979;48.306;9.830;2022-08-01T05:50:11;16.60;99.90
21635;DHT22;10979;48.306;9.830;2022-08-01T05:52:36;16.70;99.90
21635;DHT22;10979;48.306;9.830;2022-08-01T05:55:03;16.80;99.90
21635;DHT22;10979;48.306;9.830;2022-08-01T05:57:29;17.00;99.90
21635;DHT22;10979;48.306;9.830;2022-08-01T05:59:54;17.10;99.90
21635;DHT22;10979;48.306;9.830;2022-08-01T06:02:20;17.30;99.90
21635;DHT22;10979;48.306;9.830;2022-08-01T06:04:45;17.40;99.90
21635;DHT22;10979;48.306;9.830;2022-08-01T06:07:11;17.50;99.90
21635;DHT22;10979;48.306;9.830;2022-08-01T06:09:36;17.60;99.90
21635;DHT22;10979;48.306;9.830;2022-08-01T06:12:02;17.80;99.90
21635;DHT22;10979;48.306;9.830;2022-08-01T06:14:28;17.90;99.90
21635;DHT22;10979;48.306;9.830;2022-08-01T06:16:54;18.00;99.90
21635;DHT22;10979;48.306;9.830;2022-08-01T06:19:20;18.30;99.90
21635;DHT22;10979;48.306;9.830;2022-08-01T06:21:45;18.40;99.90
21635;DHT22;10979;48.306;9.830;2022-08-01T06:24:11;18.50;99.90
21635;DHT22;10979;48.306;9.830;2022-08-01T06:26:36;18.70;99.90
21635;DHT22;10979;48.306;9.830;2022-08-01T06:29:02;18.80;99.90
21635;DHT22;10979;48.306;9.830;2022-08-01T06:31:28;19.00;99.90
21635;DHT22;10979;48.306;9.830;2022-08-01T06:33:53;19.30;99.90
21635;DHT22;10979;48.306;9.830;2022-08-01T06:36:20;19.70;99.90
21635;DHT22;10979;48.306;9.830;2022-08-01T06:38:46;22.00;99.90
21635;DHT22;10979;48.306;9.830;2022-08-01T06:41:12;25.50;99.90
21635;DHT22;10979;48.306;9.830;2022-08-01T06:43:37;26.80;99.90
21635;DHT22;10979;48.306;9.830;2022-08-01T06:46:03;27.70;99.90
21635;DHT22;10979;48.306;9.830;2022-08-01T06:48:29;28.10;99.90
21635;DHT22;10979;48.306;9.830;2022-08-01T06:50:55;28.20;99.80
21635;DHT22;10979;48.306;9.830;2022-08-01T06:53:37;28.60;97.10
21635;DHT22;10979;48.306;9.830;2022-08-01T06:56:04;29.10;94.60
21635;DHT22;10979;48.306;9.830;2022-08-01T06:58:29;29.80;92.60
21635;DHT22;10979;48.306;9.830;2022-08-01T07:00:55;30.80;90.40
21635;DHT22;10979;48.306;9.830;2022-08-01T07:03:20;31.50;86.90
21635;DHT22;10979;48.306;9.830;2022-08-01T07:05:46;30.80;84.40
21635;DHT22;10979;48.306;9.830;2022-08-01T07:08:11;30.40;84.20
21635;DHT22;10979;48.306;9.830;2022-08-01T07:10:37;31.20;82.30
21635;DHT22;10979;48.306;9.830;2022-08-01T07:13:03;31.30;79.80
21635;DHT22;10979;48.306;9.830;2022-08-01T07:15:28;31.50;79.50
21635;DHT22;10979;48.306;9.830;2022-08-01T07:17:55;31.60;76.20
21635;DHT22;10979;48.306;9.830;2022-08-01T07:20:22;31.50;75.10
21635;DHT22;10979;48.306;9.830;2022-08-01T07:22:48;31.80;73.50
21635;DHT22;10979;48.306;9.830;2022-08-01T07:25:14;32.60;69.90
21635;DHT22;10979;48.306;9.830;2022-08-01T07:27:39;32.20;69.80
21635;DHT22;10979;48.306;9.830;2022-08-01T07:30:05;31.80;69.10
21635;DHT22;10979;48.306;9.830;2022-08-01T07:32:31;33.00;68.20
21635;DHT22;10979;48.306;9.830;2022-08-01T07:34:57;32.70;66.40
21635;DHT22;10979;48.306;9.830;2022-08-01T07:37:23;32.80;67.20
21635;DHT22;10979;48.306;9.830;2022-08-01T07:39:49;33.10;64.90
21635;DHT22;10979;48.306;9.830;2022-08-01T07:42:15;33.00;63.30
21635;DHT22;10979;48.306;9.830;2022-08-01T07:44:40;32.30;64.00
21635;DHT22;10979;48.306;9.830;2022-08-01T07:47:06;32.30;64.40
21635;DHT22;10979;48.306;9.830;2022-08-01T07:49:32;32.40;63.50
21635;DHT22;10979;48.306;9.830;2022-08-01T07:51:57;33.60;60.90
21635;DHT22;10979;48.306;9.830;2022-08-01T07:54:23;34.20;59.60
21635;DHT22;10979;48.306;9.830;2022-08-01T07:56:50;33.70;59.40
21635;DHT22;10979;48.306;9.830;2022-08-01T07:59:15;32.80;59.80
21635;DHT22;10979;48.306;9.830;2022-08-01T08:01:41;32.90;59.20
21635;DHT22;10979;48.306;9.830;2022-08-01T08:04:07;32.90;59.90
21635;DHT22;10979;48.306;9.830;2022-08-01T08:06:32;33.00;59.00
21635;DHT22;10979;48.306;9.830;2022-08-01T08:08:58;33.90;58.40
21635;DHT22;10979;48.306;9.830;2022-08-01T08:11:24;33.20;59.70
21635;DHT22;10979;48.306;9.830;2022-08-01T08:13:49;33.30;58.50
21635;DHT22;10979;48.306;9.830;2022-08-01T08:16:15;33.30;58.50
21635;DHT22;10979;48.306;9.830;2022-08-01T08:18:41;33.90;57.10
21635;DHT22;10979;48.306;9.830;2022-08-01T08:21:06;34.10;57.70
21635;DHT22;10979;48.306;9.830;2022-08-01T08:23:32;33.40;57.40
21635;DHT22;10979;48.306;9.830;2022-08-01T08:26:16;33.50;57.40
21635;DHT22;10979;48.306;9.830;2022-08-01T08:28:41;32.90;57.40
21635;DHT22;10979;48.306;9.830;2022-08-01T08:31:07;32.90;57.50
21635;DHT22;10979;48.306;9.830;2022-08-01T08:33:33;33.50;56.50
21635;DHT22;10979;48.306;9.830;2022-08-01T08:35:59;34.30;55.30
21635;DHT22;10979;48.306;9.830;2022-08-01T08:38:24;34.30;55.40
21635;DHT22;10979;48.306;9.830;2022-08-01T08:40:53;34.50;55.70
21635;DHT22;10979;48.306;9.830;2022-08-01T08:43:18;34.20;54.40
21635;DHT22;10979;48.306;9.830;2022-08-01T08:45:45;33.90;55.70
21635;DHT22;10979;48.306;9.830;2022-08-01T08:48:12;34.30;55.70
21635;DHT22;10979;48.306;9.830;2022-08-01T08:50:38;34.50;55.40
21635;DHT22;10979;48.306;9.830;2022-08-01T08:53:06;34.70;53.40
21635;DHT22;10979;48.306;9.830;2022-08-01T08:55:35;35.30;52.30
21635;DHT22;10979;48.306;9.830;2022-08-01T08:58:01;34.10;53.80
21635;DHT22;10979;48.306;9.830;2022-08-01T09:00:31;34.70;53.30
21635;DHT22;10979;48.306;9.830;2022-08-01T09:02:57;36.00;52.00
21635;DHT22;10979;48.306;9.830;2022-08-01T09:05:23;35.20;51.50
21635;DHT22;10979;48.306;9.830;2022-08-01T09:07:53;34.50;53.60
21635;DHT22;10979;48.306;9.830;2022-08-01T09:10:18;34.20;51.60
21635;DHT22;10979;48.306;9.830;2022-08-01T09:15:43;32.20;58.30
21635;DHT22;10979;48.306;9.830;2022-08-01T09:18:30;30.30;58.20
21635;DHT22;10979;48.306;9.830;2022-08-01T09:21:17;30.40;58.80
21635;DHT22;10979;48.306;9.830;2022-08-01T09:23:51;33.80;54.80
21635;DHT22;10979;48.306;9.830;2022-08-01T09:26:20;34.90;52.40
21635;DHT22;10979;48.306;9.830;2022-08-01T09:28:47;35.90;49.30
21635;DHT22;10979;48.306;9.830;2022-08-01T09:31:15;35.60;49.60
21635;DHT22;10979;48.306;9.830;2022-08-01T09:33:55;34.30;50.60
21635;DHT22;10979;48.306;9.830;2022-08-01T09:36:24;31.70;55.70
21635;DHT22;10979;48.306;9.830;2022-08-01T09:38:50;30.70;55.90
21635;DHT22;10979;48.306;9.830;2022-08-01T09:41:16;29.60;57.80
21635;DHT22;10979;48.306;9.830;2022-08-01T09:43:49;28.90;57.40
21635;DHT22;10979;48.306;9.830;2022-08-01T09:46:15;29.00;57.70
21635;DHT22;10979;48.306;9.830;2022-08-01T09:48:55;28.90;59.80
21635;DHT22;10979;48.306;9.830;2022-08-01T09:51:34;28.50;61.10
21635;DHT22;10979;48.306;9.830;2022-08-01T09:54:00;28.20;62.40
21635;DHT22;10979;48.306;9.830;2022-08-01T09:56:26;30.00;61.20
21635;DHT22;10979;48.306;9.830;2022-08-01T09:59:00;29.70;60.40
21635;DHT22;10979;48.306;9.830;2022-08-01T10:01:26;29.50;59.50
21635;DHT22;10979;48.306;9.830;2022-08-01T10:04:19;29.40;60.30
21635;DHT22;10979;48.306;9.830;2022-08-01T10:06:47;29.20;60.40
21635;DHT22;10979;48.306;9.830;2022-08-01T10:09:30;28.20;62.80
21635;DHT22;10979;48.306;9.830;2022-08-01T10:11:56;29.00;60.70
21635;DHT22;10979;48.306;9.830;2022-08-01T10:14:24;29.80;60.10
21635;DHT22;10979;48.306;9.830;2022-08-01T10:16:52;30.00;59.50
21635;DHT22;10979;48.306;9.830;2022-08-01T10:19:20;30.00;60.00
21635;DHT22;10979;48.306;9.830;2022-08-01T10:21:47;29.90;59.60
21635;DHT22;10979;48.306;9.830;2022-08-01T10:24:16;30.00;58.60
21635;DHT22;10979;48.306;9.830;2022-08-01T10:26:43;29.30;61.40
21635;DHT22;10979;48.306;9.830;2022-08-01T10:29:10;29.30;60.00
21635;DHT22;10979;48.306;9.830;2022-08-01T10:31:37;28.90;62.00
21635;DHT22;10979;48.306;9.830;2022-08-01T10:34:03;29.40;61.10
21635;DHT22;10979;48.306;9.830;2022-08-01T10:36:29;29.70;60.00
21635;DHT22;10979;48.306;9.830;2022-08-01T10:38:57;29.20;62.30
21635;DHT22;10979;48.306;9.830;2022-08-01T10:41:24;30.00;60.20
21635;DHT22;10979;48.306;9.830;2022-08-01T10:43:50;28.90;61.40
21635;DHT22;10979;48.306;9.830;2022-08-01T10:46:18;29.60;62.20
21635;DHT22;10979;48.306;9.830;2022-08-01T10:49:03;29.30;61.40
21635;DHT22;10979;48.306;9.830;2022-08-01T10:51:30;29.90;60.30
21635;DHT22;10979;48.306;9.830;2022-08-01T10:53:56;29.80;58.30
21635;DHT22;10979;48.306;9.830;2022-08-01T10:56:23;29.90;59.10
21635;DHT22;10979;48.306;9.830;2022-08-01T10:58:49;29.60;59.50
21635;DHT22;10979;48.306;9.830;2022-08-01T11:03:42;29.20;59.20
21635;DHT22;10979;48.306;9.830;2022-08-01T11:06:16;28.80;60.80
21635;DHT22;10979;48.306;9.830;2022-08-01T11:08:50;28.30;61.50
21635;DHT22;10979;48.306;9.830;2022-08-01T11:11:16;28.70;59.50
21635;DHT22;10979;48.306;9.830;2022-08-01T11:16:31;28.70;61.40
21635;DHT22;10979;48.306;9.830;2022-08-01T11:18:57;29.00;61.80
21635;DHT22;10979;48.306;9.830;2022-08-01T11:21:57;29.20;61.70
21635;DHT22;10979;48.306;9.830;2022-08-01T11:32:57;27.10;65.10
21635;DHT22;10979;48.306;9.830;2022-08-01T11:35:24;27.00;66.20
21635;DHT22;10979;48.306;9.830;2022-08-01T11:37:55;26.70;67.50
21635;DHT22;10979;48.306;9.830;2022-08-01T11:40:28;26.60;70.00
21635;DHT22;10979;48.306;9.830;2022-08-01T11:45:51;26.30;71.80
21635;DHT22;10979;48.306;9.830;2022-08-01T11:48:25;26.50;68.20
21635;DHT22;10979;48.306;9.830;2022-08-01T11:50:52;26.50;69.50
21635;DHT22;10979;48.306;9.830;2022-08-01T11:53:18;26.70;69.20
21635;DHT22;10979;48.306;9.830;2022-08-01T11:55:50;26.80;68.50
21635;DHT22;10979;48.306;9.830;2022-08-01T11:58:20;26.70;68.30
21635;DHT22;10979;48.306;9.830;2022-08-01T12:00:53;26.60;66.80
21635;DHT22;10979;48.306;9.830;2022-08-01T12:03:30;26.60;67.70
21635;DHT22;10979;48.306;9.830;2022-08-01T12:05:57;26.70;69.50
21635;DHT22;10979;48.306;9.830;2022-08-01T12:08:28;26.70;70.10
21635;DHT22;10979;48.306;9.830;2022-08-01T12:10:54;26.70;71.80
21635;DHT22;10979;48.306;9.830;2022-08-01T12:13:20;26.80;71.10
21635;DHT22;10979;48.306;9.830;2022-08-01T12:15:46;26.90;70.40
21635;DHT22;10979;48.306;9.830;2022-08-01T12:18:12;27.20;70.70
21635;DHT22;10979;48.306;9.830;2022-08-01T12:20:43;27.40;67.10
21635;DHT22;10979;48.306;9.830;2022-08-01T12:23:11;27.90;67.00
21635;DHT22;10979;48.306;9.830;2022-08-01T12:25:38;27.80;64.70
21635;DHT22;10979;48.306;9.830;2022-08-01T12:28:11;27.80;64.30
21635;DHT22;10979;48.306;9.830;2022-08-01T12:30:39;27.90;63.20
21635;DHT22;10979;48.306;9.830;2022-08-01T12:33:08;27.40;64.40
21635;DHT22;10979;48.306;9.830;2022-08-01T12:35:34;27.30;64.30
21635;DHT22;10979;48.306;9.830;2022-08-01T12:38:04;27.20;64.90
21635;DHT22;10979;48.306;9.830;2022-08-01T12:40:35;26.90;67.30
21635;DHT22;10979;48.306;9.830;2022-08-01T12:43:04;26.60;68.10
21635;DHT22;10979;48.306;9.830;2022-08-01T12:45:35;26.30;70.30
21635;DHT22;10979;48.306;9.830;2022-08-01T12:48:03;26.20;71.90
21635;DHT22;10979;48.306;9.830;2022-08-01T12:50:32;25.80;79.20
21635;DHT22;10979;48.306;9.830;2022-08-01T12:52:58;25.10;90.40
21635;DHT22;10979;48.306;9.830;2022-08-01T12:55:26;25.00;91.90
21635;DHT22;10979;48.306;9.830;2022-08-01T12:58:08;24.70;90.00
21635;DHT22;10979;48.306;9.830;2022-08-01T13:00:36;24.00;92.50
21635;DHT22;10979;48.306;9.830;2022-08-01T13:03:10;23.70;96.00
21635;DHT22;10979;48.306;9.830;2022-08-01T13:05:57;23.80;97.80
21635;DHT22;10979;48.306;9.830;2022-08-01T13:08:31;23.90;99.90
21635;DHT22;10979;48.306;9.830;2022-08-01T13:11:02;23.90;99.90
21635;DHT22;10979;48.306;9.830;2022-08-01T13:13:38;24.00;99.90
21635;DHT22;10979;48.306;9.830;2022-08-01T13:16:05;23.80;99.90
21635;DHT22;10979;48.306;9.830;2022-08-01T13:18:32;23.90;99.90
21635;DHT22;10979;48.306;9.830;2022-08-01T13:21:15;23.70;99.90
21635;DHT22;10979;48.306;9.830;2022-08-01T13:24:27;23.70;99.90
21635;DHT22;10979;48.306;9.830;2022-08-01T13:29:06;24.50;99.90
21635;DHT22;10979;48.306;9.830;2022-08-01T13:31:35;25.20;99.90
21635;DHT22;10979;48.306;9.830;2022-08-01T13:34:01;25.40;99.90
21635;DHT22;10979;48.306;9.830;2022-08-01T13:36:27;25.70;99.90
21635;DHT22;10979;48.306;9.830;2022-08-01T13:38:54;25.60;99.80
21635;DHT22;10979;48.306;9.830;2022-08-01T13:41:39;25.80;99.90
21635;DHT22;10979;48.306;9.830;2022-08-01T13:44:04;26.20;94.70
21635;DHT22;10979;48.306;9.830;2022-08-01T13:46:31;26.20;95.00
21635;DHT22;10979;48.306;9.830;2022-08-01T13:48:57;25.70;94.80
21635;DHT22;10979;48.306;9.830;2022-08-01T13:51:22;26.00;95.30
21635;DHT22;10979;48.306;9.830;2022-08-01T13:53:48;26.40;93.30
21635;DHT22;10979;48.306;9.830;2022-08-01T13:56:14;26.40;94.40
21635;DHT22;10979;48.306;9.830;2022-08-01T13:58:41;26.40;92.00
21635;DHT22;10979;48.306;9.830;2022-08-01T14:01:07;25.80;90.30
21635;DHT22;10979;48.306;9.830;2022-08-01T14:03:32;26.00;92.40
21635;DHT22;10979;48.306;9.830;2022-08-01T14:05:58;26.10;92.20
21635;DHT22;10979;48.306;9.830;2022-08-01T14:08:24;26.40;92.30
21635;DHT22;10979;48.306;9.830;2022-08-01T14:10:49;26.20;92.20
21635;DHT22;10979;48.306;9.830;2022-08-01T14:13:15;25.90;91.70
21635;DHT22;10979;48.306;9.830;2022-08-01T14:15:41;25.50;91.20
21635;DHT22;10979;48.306;9.830;2022-08-01T14:18:07;25.50;91.30
21635;DHT22;10979;48.306;9.830;2022-08-01T14:20:34;25.80;91.00
21635;DHT22;10979;48.306;9.830;2022-08-01T14:23:00;25.80;89.10
21635;DHT22;10979;48.306;9.830;2022-08-01T14:25:26;26.20;90.20
21635;DHT22;10979;48.306;9.830;2022-08-01T14:27:51;26.20;87.70
21635;DHT22;10979;48.306;9.830;2022-08-01T14:30:17;26.20;86.40
21635;DHT22;10979;48.306;9.830;2022-08-01T14:32:42;26.10;86.80
21635;DHT22;10979;48.306;9.830;2022-08-01T14:35:08;26.30;85.10
21635;DHT22;10979;48.306;9.830;2022-08-01T14:37:34;25.90;87.60
21635;DHT22;10979;48.306;9.830;2022-08-01T14:40:00;25.90;87.00
21635;DHT22;10979;48.306;9.830;2022-08-01T14:42:30;25.60;88.90
21635;DHT22;10979;48.306;9.830;2022-08-01T14:44:56;25.80;87.20
21635;DHT22;10979;48.306;9.830;2022-08-01T14:47:21;25.70;87.50
21635;DHT22;10979;48.306;9.830;2022-08-01T14:49:47;25.60;87.80
21635;DHT22;10979;48.306;9.830;2022-08-01T14:52:12;25.70;84.60
21635;DHT22;10979;48.306;9.830;2022-08-01T14:54:38;25.40;89.10
21635;DHT22;10979;48.306;9.830;2022-08-01T14:57:04;25.20;86.70
21635;DHT22;10979;48.306;9.830;2022-08-01T14:59:29;24.90;91.20
21635;DHT22;10979;48.306;9.830;2022-08-01T15:01:55;24.80;91.20
21635;DHT22;10979;48.306;9.830;2022-08-01T15:04:20;24.80;92.20
21635;DHT22;10979;48.306;9.830;2022-08-01T15:06:46;24.70;92.90
21635;DHT22;10979;48.306;9.830;2022-08-01T15:09:11;24.30;94.00
21635;DHT22;10979;48.306;9.830;2022-08-01T15:11:37;24.20;94.40
21635;DHT22;10979;48.306;9.830;2022-08-01T15:14:03;24.00;94.30
21635;DHT22;10979;48.306;9.830;2022-08-01T15:16:47;23.60;95.90
21635;DHT22;10979;48.306;9.830;2022-08-01T15:19:13;23.50;96.50
21635;DHT22;10979;48.306;9.830;2022-08-01T15:21:39;23.60;96.50
21635;DHT22;10979;48.306;9.830;2022-08-01T15:24:05;23.30;96.00
21635;DHT22;10979;48.306;9.830;2022-08-01T15:26:31;23.20;96.20
21635;DHT22;10979;48.306;9.830;2022-08-01T15:28:57;23.20;96.50
21635;DHT22;10979;48.306;9.830;2022-08-01T15:31:22;22.90;97.00
21635;DHT22;10979;48.306;9.830;2022-08-01T15:33:48;22.80;97.50
21635;DHT22;10979;48.306;9.830;2022-08-01T15:36:14;22.90;97.60
21635;DHT22;10979;48.306;9.830;2022-08-01T15:38:39;22.90;97.30
21635;DHT22;10979;48.306;9.830;2022-08-01T15:41:05;22.90;96.90
21635;DHT22;10979;48.306;9.830;2022-08-01T15:43:31;23.10;97.70
21635;DHT22;10979;48.306;9.830;2022-08-01T15:45:57;23.10;96.90
21635;DHT22;10979;48.306;9.830;2022-08-01T15:48:22;23.30;96.60
21635;DHT22;10979;48.306;9.830;2022-08-01T15:50:48;23.60;96.60
21635;DHT22;10979;48.306;9.830;2022-08-01T15:53:14;23.60;96.40
21635;DHT22;10979;48.306;9.830;2022-08-01T15:55:39;23.60;96.60
21635;DHT22;10979;48.306;9.830;2022-08-01T15:58:06;23.60;96.10
21635;DHT22;10979;48.306;9.830;2022-08-01T16:00:32;23.60;95.40
21635;DHT22;10979;48.306;9.830;2022-08-01T16:02:57;23.40;94.30
21635;DHT22;10979;48.306;9.830;2022-08-01T16:05:23;23.60;94.30
21635;DHT22;10979;48.306;9.830;2022-08-01T16:07:49;23.60;95.10
21635;DHT22;10979;48.306;9.830;2022-08-01T16:10:14;23.70;94.90